Observation data for Gail on 11/19/2019      Previous  Date  Next       Current Mesonet Observations  Soil Data  Daily Summary Page  Observations in Plain Language
KGGS 190600Z 33001KT 11/00 A2996 RMK A01 T01060002  RH  049%=      5-min Rain = 0
KGGS 190605Z 33001KT 10/00 A2996 RMK A01 T01010003  RH  051%=      5-min Rain = 0
KGGS 190610Z 00002KT 10/00 A2996 RMK A01 T00970003  RH  053%=      5-min Rain = 0
KGGS 190615Z 00002KT 09/00 A2996 RMK A01 T00850004  RH  057%=      5-min Rain = 0
KGGS 190620Z 36002KT 08/00 A2996 RMK A01 T00820003  RH  058%=      5-min Rain = 0
KGGS 190625Z 03002KT 09/00 A2996 RMK A01 T00850003  RH  057%=      5-min Rain = 0
KGGS 190630Z 04001KT 09/00 A2996 RMK A01 T00880003  RH  056%=      5-min Rain = 0
KGGS 190635Z 36001KT 10/00 A2996 RMK A01 T00960003  RH  053%=      5-min Rain = 0
KGGS 190640Z 32002KT 09/00 A2995 RMK A01 T00920003  RH  054%=      5-min Rain = 0
KGGS 190645Z 32002KT 10/00 A2996 RMK A01 T01000004  RH  052%=      5-min Rain = 0
KGGS 190650Z 32002KT 10/00 A2996 RMK A01 T00980003  RH  052%=      5-min Rain = 0
KGGS 190655Z 32002KT 10/00 A2996 RMK A01 T00970003  RH  053%=      5-min Rain = 0
KGGS 190700Z 31001KT 10/00 A2996 RMK A01 T00970004  RH  053%=      5-min Rain = 0
KGGS 190705Z 32001KT 09/01 A2995 RMK A01 T00880005  RH  057%=      5-min Rain = 0
KGGS 190710Z 30001KT 08/00 A2996 RMK A01 T00840004  RH  058%=      5-min Rain = 0
KGGS 190715Z 32001KT 08/00 A2996 RMK A01 T00800004  RH  059%=      5-min Rain = 0
KGGS 190720Z 30002KT 08/00 A2996 RMK A01 T00770004  RH  060%=      5-min Rain = 0
KGGS 190725Z 32002KT 07/00 A2996 RMK A01 T00740004  RH  061%=      5-min Rain = 0
KGGS 190730Z 33002KT 07/00 A2996 RMK A01 T00730004  RH  062%=      5-min Rain = 0
KGGS 190735Z 32002KT 07/00 A2996 RMK A01 T00730004  RH  062%=      5-min Rain = 0
KGGS 190740Z 33003KT 07/00 A2996 RMK A01 T00730004  RH  062%=      5-min Rain = 0
KGGS 190745Z 32002KT 07/00 A2995 RMK A01 T00730003  RH  062%=      5-min Rain = 0
KGGS 190750Z 32002KT 07/00 A2995 RMK A01 T00740004  RH  062%=      5-min Rain = 0
KGGS 190755Z 31003KT 08/01 A2996 RMK A01 T00760005  RH  061%=      5-min Rain = 0
KGGS 190800Z 31003KT 08/01 A2996 RMK A01 T00820006  RH  059%=      5-min Rain = 0
KGGS 190805Z 31003KT 09/01 A2996 RMK A01 T00860006  RH  058%=      5-min Rain = 0
KGGS 190810Z 32003KT 09/01 A2996 RMK A01 T00860005  RH  058%=      5-min Rain = 0
KGGS 190815Z 31002KT 09/01 A2996 RMK A01 T00860006  RH  058%=      5-min Rain = 0
KGGS 190820Z 31002KT 09/01 A2996 RMK A01 T00930006  RH  055%=      5-min Rain = 0
KGGS 190825Z 31002KT 09/01 A2996 RMK A01 T00920005  RH  055%=      5-min Rain = 0
KGGS 190830Z 32002KT 09/01 A2996 RMK A01 T00870005  RH  057%=      5-min Rain = 0
KGGS 190835Z 34003KT 08/00 A2996 RMK A01 T00750002  RH  061%=      5-min Rain = 0
KGGS 190840Z 36002KT 07/00 A2996 RMK A01 T00730004  RH  062%=      5-min Rain = 0
KGGS 190845Z 34002KT 08/01 A2996 RMK A01 T00750005  RH  062%=      5-min Rain = 0
KGGS 190850Z 33002KT 08/01 A2996 RMK A01 T00810006  RH  060%=      5-min Rain = 0
KGGS 190855Z 31002KT 08/01 A2996 RMK A01 T00800005  RH  059%=      5-min Rain = 0
KGGS 190900Z 33001KT 07/00 A2996 RMK A01 T00730004  RH  062%=      5-min Rain = 0
KGGS 190905Z 35001KT 07/00 A2996 RMK A01 T00680004  RH  065%=      5-min Rain = 0
KGGS 190910Z 00001KT 07/01 A2996 RMK A01 T00650005  RH  067%=      5-min Rain = 0
KGGS 190915Z 00001KT 07/01 A2996 RMK A01 T00700007  RH  065%=      5-min Rain = 0
KGGS 190920Z 01001KT 07/01 A2996 RMK A01 T00710006  RH  064%=      5-min Rain = 0
KGGS 190925Z 34001KT 07/01 A2996 RMK A01 T00690006  RH  065%=      5-min Rain = 0
KGGS 190930Z 33001KT 08/01 A2996 RMK A01 T00750007  RH  063%=      5-min Rain = 0
KGGS 190935Z 33000KT 07/01 A2996 RMK A01 T00740006  RH  063%=      5-min Rain = 0
KGGS 190940Z 33001KT 07/00 A2995 RMK A01 T00660004  RH  065%=      5-min Rain = 0
KGGS 190945Z 33001KT 06/00 A2995 RMK A01 T00610002  RH  067%=      5-min Rain = 0
KGGS 190950Z 36000KT 06/00 A2995 RMK A01 T00590004  RH  068%=      5-min Rain = 0
KGGS 190955Z 00000KT 07/01 A2995 RMK A01 T00690008  RH  066%=      5-min Rain = 0
KGGS 191000Z 00001KT 09/01 A2995 RMK A01 T00850009  RH  060%=      5-min Rain = 0
KGGS 191005Z 35001KT 09/01 A2995 RMK A01 T00850006  RH  058%=      5-min Rain = 0
KGGS 191010Z 35001KT 07/00 A2995 RMK A01 T00730003  RH  062%=      5-min Rain = 0
KGGS 191015Z 35000KT 07/01 A2995 RMK A01 T00670005  RH  066%=      5-min Rain = 0
KGGS 191020Z 33001KT 07/01 A2995 RMK A01 T00680007  RH  066%=      5-min Rain = 0
KGGS 191025Z 29001KT 08/01 A2995 RMK A01 T00770008  RH  062%=      5-min Rain = 0
KGGS 191030Z 28000KT 07/00 A2995 RMK A01 T00700003  RH  063%=      5-min Rain = 0
KGGS 191035Z 14000KT 06/00 A2995 RMK A01 T00580002  RH  068%=      5-min Rain = 0
KGGS 191040Z 14000KT 05/00 A2994 RMK A01 T00540003  RH  070%=      5-min Rain = 0
KGGS 191045Z 15000KT 06/01 A2994 RMK A01 T00570006  RH  071%=      5-min Rain = 0
KGGS 191050Z 15001KT 06/01 A2995 RMK A01 T00590006  RH  069%=      5-min Rain = 0
KGGS 191055Z 05000KT 06/00 A2995 RMK A01 T00550003  RH  070%=      5-min Rain = 0
KGGS 191100Z 05001KT 05/00 A2995 RMK A01 T00510003  RH  072%=      5-min Rain = 0
KGGS 191105Z 08000KT 06/01 A2995 RMK A01 T00550006  RH  072%=      5-min Rain = 0
KGGS 191110Z 05001KT 06/01 A2995 RMK A01 T00590007  RH  070%=      5-min Rain = 0
KGGS 191115Z 35002KT 07/01 A2995 RMK A01 T00650008  RH  068%=      5-min Rain = 0
KGGS 191120Z 34001KT 06/00 A2995 RMK A01 T00620004  RH  067%=      5-min Rain = 0
KGGS 191125Z 35002KT 05/00 A2995 RMK A01 T00530000  RH  070%=      5-min Rain = 0
KGGS 191130Z 35002KT 05/M00 A2995 RMK A01 T00461003  RH  071%=      5-min Rain = 0
KGGS 191135Z 34002KT 04/00 A2994 RMK A01 T004300-0  RH  075%=      5-min Rain = 0
KGGS 191140Z 33002KT 04/00 A2994 RMK A01 T00420002  RH  076%=      5-min Rain = 0
KGGS 191145Z 33002KT 04/M00 A2994 RMK A01 T00401001  RH  076%=      5-min Rain = 0
KGGS 191150Z 33002KT 03/M01 A2994 RMK A01 T00331005  RH  077%=      5-min Rain = 0
KGGS 191155Z 31003KT 04/00 A2994 RMK A01 T00360001  RH  079%=      5-min Rain = 0
KGGS 191200Z 30002KT 04/01 A2994 RMK A01 T00430007  RH  078%=      5-min Rain = 0
KGGS 191205Z 31002KT 04/00 A2994 RMK A01 T00430004  RH  077%=      5-min Rain = 0
KGGS 191210Z 30001KT 04/01 A2994 RMK A01 T00420005  RH  078%=      5-min Rain = 0
KGGS 191215Z 23001KT 05/01 A2995 RMK A01 T00450007  RH  077%=      5-min Rain = 0
KGGS 191220Z 15001KT 05/01 A2996 RMK A01 T00450007  RH  077%=      5-min Rain = 0
KGGS 191225Z 14002KT 04/00 A2996 RMK A01 T00400003  RH  078%=      5-min Rain = 0
KGGS 191230Z 15002KT 03/00 A2996 RMK A01 T003400-0  RH  079%=      5-min Rain = 0
KGGS 191235Z 14002KT 03/M00 A2996 RMK A01 T00281003  RH  081%=      5-min Rain = 0
KGGS 191240Z 14003KT 03/M00 A2996 RMK A01 T00281001  RH  082%=      5-min Rain = 0
KGGS 191245Z 14002KT 04/01 A2996 RMK A01 T00400011  RH  082%=      5-min Rain = 0
KGGS 191250Z 14002KT 05/01 A2996 RMK A01 T00490013  RH  078%=      5-min Rain = 0
KGGS 191255Z 14001KT 05/01 A2996 RMK A01 T00520011  RH  076%=      5-min Rain = 0
KGGS 191300Z 16001KT 05/01 A2997 RMK A01 T00480008  RH  076%=      5-min Rain = 0
KGGS 191305Z 16001KT 05/01 A2997 RMK A01 T00470007  RH  077%=      5-min Rain = 0
KGGS 191310Z 19002KT 06/01 A2997 RMK A01 T00550013  RH  075%=      5-min Rain = 0
KGGS 191315Z 18002KT 05/00 A2997 RMK A01 T00500001  RH  071%=      5-min Rain = 0
KGGS 191320Z 18001KT 04/M01 A2997 RMK A01 T00361006  RH  075%=      5-min Rain = 0
KGGS 191325Z 21000KT 04/00 A2997 RMK A01 T003600-0  RH  078%=      5-min Rain = 0
KGGS 191330Z 00000KT 04/01 A2997 RMK A01 T00420008  RH  080%=      5-min Rain = 0
KGGS 191335Z 00000KT 05/01 A2997 RMK A01 T00450009  RH  079%=      5-min Rain = 0
KGGS 191340Z 00000KT 05/01 A2997 RMK A01 T00460009  RH  078%=      5-min Rain = 0
KGGS 191345Z 15001KT 05/01 A2997 RMK A01 T00490010  RH  077%=      5-min Rain = 0
KGGS 191350Z 14001KT 06/01 A2997 RMK A01 T00560012  RH  075%=      5-min Rain = 0
KGGS 191355Z 14002KT 06/01 A2997 RMK A01 T00600013  RH  073%=      5-min Rain = 0
KGGS 191400Z 14003KT 07/02 A2997 RMK A01 T00650017  RH  072%=      5-min Rain = 0
KGGS 191405Z 15003KT 07/02 A2997 RMK A01 T00720022  RH  072%=      5-min Rain = 0
KGGS 191410Z 13002KT 08/03 A2997 RMK A01 T00810026  RH  069%=      5-min Rain = 0
KGGS 191415Z 15002KT 09/02 A2997 RMK A01 T00870023  RH  065%=      5-min Rain = 0
KGGS 191420Z 16002KT 09/02 A2998 RMK A01 T00880022  RH  065%=      5-min Rain = 0
KGGS 191425Z 19002KT 09/03 A2998 RMK A01 T00880025  RH  066%=      5-min Rain = 0
KGGS 191430Z 19002KT 09/03 A2998 RMK A01 T00940029  RH  065%=      5-min Rain = 0
KGGS 191435Z 19002KT 10/03 A2998 RMK A01 T00970028  RH  063%=      5-min Rain = 0
KGGS 191440Z 18002KT 10/03 A2998 RMK A01 T00980025  RH  061%=      5-min Rain = 0
KGGS 191445Z 17003KT 10/03 A2998 RMK A01 T00990026  RH  061%=      5-min Rain = 0
KGGS 191450Z 18003KT 10/02 A2998 RMK A01 T01030024  RH  059%=      5-min Rain = 0
KGGS 191455Z 19003KT 11/03 A2997 RMK A01 T01070026  RH  058%=      5-min Rain = 0
KGGS 191500Z 20003KT 11/03 A2998 RMK A01 T01110026  RH  057%=      5-min Rain = 0
KGGS 191505Z 21005KT 11/03 A2998 RMK A01 T01130028  RH  057%=      5-min Rain = 0
KGGS 191510Z 21006KT 11/03 A2998 RMK A01 T01130027  RH  056%=      5-min Rain = 0
KGGS 191515Z 21005KT 12/03 A2998 RMK A01 T01170028  RH  055%=      5-min Rain = 0
KGGS 191520Z 21006KT 12/03 A2998 RMK A01 T01210030  RH  055%=      5-min Rain = 0
KGGS 191525Z 21008KT 12/03 A2998 RMK A01 T01240031  RH  054%=      5-min Rain = 0
KGGS 191530Z 21009KT 13/03 A2998 RMK A01 T01270033  RH  054%=      5-min Rain = 0
KGGS 191535Z 21007KT 13/04 A2998 RMK A01 T01310035  RH  053%=      5-min Rain = 0
KGGS 191540Z 21007KT 14/04 A2998 RMK A01 T01360036  RH  052%=      5-min Rain = 0
KGGS 191545Z 21009KT 14/04 A2998 RMK A01 T01390037  RH  051%=      5-min Rain = 0
KGGS 191550Z 21010KT 14/04 A2997 RMK A01 T01420038  RH  051%=      5-min Rain = 0
KGGS 191555Z 21011KT 14/04 A2997 RMK A01 T01410038  RH  051%=      5-min Rain = 0
KGGS 191600Z 21009KT 15/04 A2997 RMK A01 T01460040  RH  050%=      5-min Rain = 0
KGGS 191605Z 21009KT 15/04 A2997 RMK A01 T01520042  RH  049%=      5-min Rain = 0
KGGS 191610Z 22008KT 16/04 A2997 RMK A01 T01570044  RH  048%=      5-min Rain = 0
KGGS 191615Z 22009KT 16/05 A2997 RMK A01 T01600045  RH  047%=      5-min Rain = 0
KGGS 191620Z 22009G14KT 16/05 A2997 RMK A01 T01610045  RH  047%=      5-min Rain = 0
KGGS 191625Z 22010KT 17/05 A2997 RMK A01 T01650046  RH  046%=      5-min Rain = 0
KGGS 191630Z 21010KT 17/05 A2997 RMK A01 T01680047  RH  046%=      5-min Rain = 0
KGGS 191635Z 22009KT 17/05 A2997 RMK A01 T01730049  RH  045%=      5-min Rain = 0
KGGS 191640Z 21011KT 17/05 A2997 RMK A01 T01740049  RH  044%=      5-min Rain = 0
KGGS 191645Z 20010KT 18/05 A2997 RMK A01 T01790050  RH  044%=      5-min Rain = 0
KGGS 191650Z 19009G14KT 18/05 A2996 RMK A01 T01840051  RH  043%=      5-min Rain = 0
KGGS 191655Z 19010KT 19/05 A2996 RMK A01 T01850051  RH  042%=      5-min Rain = 0
KGGS 191700Z 20010KT 19/05 A2996 RMK A01 T01880050  RH  041%=      5-min Rain = 0
KGGS 191705Z 20008KT 19/05 A2996 RMK A01 T01930051  RH  040%=      5-min Rain = 0
KGGS 191710Z 20010KT 20/05 A2996 RMK A01 T01980051  RH  039%=      5-min Rain = 0
KGGS 191715Z 19010KT 20/05 A2995 RMK A01 T02020049  RH  037%=      5-min Rain = 0
KGGS 191720Z 19011KT 21/05 A2995 RMK A01 T02070049  RH  036%=      5-min Rain = 0
KGGS 191725Z 17009KT 21/05 A2995 RMK A01 T02090051  RH  036%=      5-min Rain = 0
KGGS 191730Z 18008KT 22/05 A2994 RMK A01 T02160053  RH  035%=      5-min Rain = 0
KGGS 191735Z 19009KT 22/05 A2994 RMK A01 T02160051  RH  035%=      5-min Rain = 0
KGGS 191740Z 18009KT 22/05 A2994 RMK A01 T02190050  RH  034%=      5-min Rain = 0
KGGS 191745Z 18012KT 22/05 A2994 RMK A01 T02210047  RH  033%=      5-min Rain = 0
KGGS 191750Z 19012KT 22/05 A2994 RMK A01 T02210046  RH  033%=      5-min Rain = 0
KGGS 191755Z 19011G16KT 22/05 A2993 RMK A01 T02210046  RH  033%=      5-min Rain = 0
KGGS 191800Z 20010KT 23/05 A2993 RMK A01 T02250047  RH  032%=      5-min Rain = 0
KGGS 191805Z 18011G17KT 23/05 A2993 RMK A01 T02300045  RH  031%=      5-min Rain = 0
KGGS 191810Z 19013KT 23/04 A2993 RMK A01 T02290043  RH  030%=      5-min Rain = 0
KGGS 191815Z 19011KT 23/04 A2992 RMK A01 T02280044  RH  031%=      5-min Rain = 0
KGGS 191820Z 20010G15KT 23/05 A2992 RMK A01 T02330045  RH  030%=      5-min Rain = 0
KGGS 191825Z 18012KT 24/04 A2992 RMK A01 T02350042  RH  029%=      5-min Rain = 0
KGGS 191830Z 20011KT 24/04 A2991 RMK A01 T02370041  RH  029%=      5-min Rain = 0
KGGS 191835Z 19011KT 24/04 A2991 RMK A01 T02390039  RH  028%=      5-min Rain = 0
KGGS 191840Z 20011G16KT 24/04 A2991 RMK A01 T02430039  RH  027%=      5-min Rain = 0
KGGS 191845Z 19011KT 24/04 A299 RMK A01 T02420041  RH  028%=      5-min Rain = 0
KGGS 191850Z 20012KT 24/04 A299 RMK A01 T02430037  RH  027%=      5-min Rain = 0
KGGS 191855Z 19012KT 25/04 A299 RMK A01 T02460037  RH  026%=      5-min Rain = 0
KGGS 191900Z 18011G16KT 25/04 A2989 RMK A01 T02460037  RH  026%=      5-min Rain = 0
KGGS 191905Z 19012KT 25/03 A2989 RMK A01 T02490032  RH  025%=      5-min Rain = 0
KGGS 191910Z 18010G15KT 25/03 A2989 RMK A01 T02520031  RH  024%=      5-min Rain = 0
KGGS 191915Z 18012G18KT 25/02 A2988 RMK A01 T02520024  RH  023%=      5-min Rain = 0
KGGS 191920Z 19013G18KT 26/02 A2988 RMK A01 T02550019  RH  022%=      5-min Rain = 0
KGGS 191925Z 17013G18KT 26/02 A2988 RMK A01 T02560016  RH  021%=      5-min Rain = 0
KGGS 191930Z 18012G18KT 26/02 A2987 RMK A01 T02570016  RH  021%=      5-min Rain = 0
KGGS 191935Z 18013G18KT 26/01 A2987 RMK A01 T02590012  RH  020%=      5-min Rain = 0
KGGS 191940Z 18013G19KT 26/01 A2987 RMK A01 T02580007  RH  020%=      5-min Rain = 0
KGGS 191945Z 19013KT 26/01 A2987 RMK A01 T02580008  RH  020%=      5-min Rain = 0
KGGS 191950Z 17012G17KT 26/01 A2986 RMK A01 T02580007  RH  020%=      5-min Rain = 0
KGGS 191955Z 18012G17KT 26/01 A2986 RMK A01 T02580011  RH  020%=      5-min Rain = 0
KGGS 192000Z 18012G17KT 26/01 A2986 RMK A01 T02590010  RH  020%=      5-min Rain = 0
KGGS 192005Z 18011KT 26/01 A2986 RMK A01 T02630011  RH  020%=      5-min Rain = 0
KGGS 192010Z 19010KT 26/01 A2985 RMK A01 T02630013  RH  020%=      5-min Rain = 0
KGGS 192015Z 20012KT 26/01 A2985 RMK A01 T02630013  RH  020%=      5-min Rain = 0
KGGS 192020Z 19011G16KT 26/01 A2985 RMK A01 T02630013  RH  020%=      5-min Rain = 0
KGGS 192025Z 17012G17KT 26/01 A2985 RMK A01 T02640014  RH  020%=      5-min Rain = 0
KGGS 192030Z 19010KT 26/01 A2984 RMK A01 T02640006  RH  019%=      5-min Rain = 0
KGGS 192035Z 18011KT 26/01 A2984 RMK A01 T02640012  RH  020%=      5-min Rain = 0
KGGS 192040Z 18011KT 26/02 A2984 RMK A01 T02630015  RH  020%=      5-min Rain = 0
KGGS 192045Z 18010G15KT 26/02 A2984 RMK A01 T02620015  RH  020%=      5-min Rain = 0
KGGS 192050Z 19011KT 26/01 A2984 RMK A01 T02570013  RH  021%=      5-min Rain = 0
KGGS 192055Z 19011KT 26/02 A2984 RMK A01 T02560015  RH  021%=      5-min Rain = 0
KGGS 192100Z 19011KT 26/01 A2983 RMK A01 T02630011  RH  020%=      5-min Rain = 0
KGGS 192105Z 19011KT 26/02 A2983 RMK A01 T02630015  RH  020%=      5-min Rain = 0
KGGS 192110Z 18011G17KT 26/02 A2983 RMK A01 T02630018  RH  021%=      5-min Rain = 0
KGGS 192115Z 19011G18KT 26/01 A2983 RMK A01 T02620013  RH  020%=      5-min Rain = 0
KGGS 192120Z 19013G18KT 26/01 A2983 RMK A01 T02610013  RH  020%=      5-min Rain = 0
KGGS 192125Z 19012KT 26/01 A2983 RMK A01 T02640011  RH  020%=      5-min Rain = 0
KGGS 192130Z 18010G16KT 26/01 A2983 RMK A01 T02640014  RH  020%=      5-min Rain = 0
KGGS 192135Z 18011G17KT 26/01 A2983 RMK A01 T02640014  RH  020%=      5-min Rain = 0
KGGS 192140Z 20011KT 26/01 A2982 RMK A01 T02640011  RH  020%=      5-min Rain = 0
KGGS 192145Z 21012G17KT 26/01 A2982 RMK A01 T02640013  RH  020%=      5-min Rain = 0
KGGS 192150Z 18012G18KT 27/02 A2982 RMK A01 T02650015  RH  020%=      5-min Rain = 0
KGGS 192155Z 19014G19KT 26/01 A2982 RMK A01 T02640009  RH  019%=      5-min Rain = 0
KGGS 192200Z 19013G18KT 26/01 A2982 RMK A01 T02620007  RH  019%=      5-min Rain = 0
KGGS 192205Z 19011KT 26/01 A2982 RMK A01 T02610007  RH  019%=      5-min Rain = 0
KGGS 192210Z 19012KT 26/01 A2982 RMK A01 T02590007  RH  020%=      5-min Rain = 0
KGGS 192215Z 19011KT 26/01 A2982 RMK A01 T02550011  RH  021%=      5-min Rain = 0
KGGS 192220Z 19012KT 25/01 A2982 RMK A01 T02520010  RH  021%=      5-min Rain = 0
KGGS 192225Z 19010KT 25/01 A2982 RMK A01 T02470012  RH  022%=      5-min Rain = 0
KGGS 192230Z 19008KT 25/01 A2982 RMK A01 T02460013  RH  022%=      5-min Rain = 0
KGGS 192235Z 19008KT 25/01 A2982 RMK A01 T02490014  RH  022%=      5-min Rain = 0
KGGS 192240Z 19008KT 25/01 A2982 RMK A01 T02460014  RH  022%=      5-min Rain = 0
KGGS 192245Z 18007KT 25/02 A2981 RMK A01 T02510015  RH  022%=      5-min Rain = 0
KGGS 192250Z 18007KT 25/02 A2981 RMK A01 T02520015  RH  022%=      5-min Rain = 0
KGGS 192255Z 18006KT 25/02 A2981 RMK A01 T02520016  RH  022%=      5-min Rain = 0
KGGS 192300Z 17007KT 25/02 A2981 RMK A01 T02510015  RH  022%=      5-min Rain = 0
KGGS 192305Z 17008KT 25/01 A2981 RMK A01 T02490013  RH  022%=      5-min Rain = 0
KGGS 192310Z 18008KT 25/01 A2981 RMK A01 T02460012  RH  022%=      5-min Rain = 0
KGGS 192315Z 17007KT 24/01 A2981 RMK A01 T02410011  RH  022%=      5-min Rain = 0
KGGS 192320Z 17007KT 24/01 A2981 RMK A01 T02360009  RH  023%=      5-min Rain = 0
KGGS 192325Z 17007KT 23/01 A2981 RMK A01 T02300010  RH  024%=      5-min Rain = 0
KGGS 192330Z 17006KT 23/01 A2981 RMK A01 T02260011  RH  025%=      5-min Rain = 0
KGGS 192335Z 17006KT 22/01 A2981 RMK A01 T02170013  RH  026%=      5-min Rain = 0
KGGS 192340Z 16006KT 21/01 A2981 RMK A01 T02090013  RH  028%=      5-min Rain = 0
KGGS 192345Z 16006KT 20/01 A2981 RMK A01 T02010014  RH  029%=      5-min Rain = 0
KGGS 192350Z 16007KT 20/02 A2981 RMK A01 T01960015  RH  030%=      5-min Rain = 0
KGGS 192355Z 16007KT 20/02 A2981 RMK A01 T01990016  RH  030%=      5-min Rain = 0
KGGS 200000Z 16007KT 20/02 A2981 RMK A01 T02000017  RH  030%=      5-min Rain = 0
KGGS 200005Z 16007KT 20/02 A2981 RMK A01 T01960018  RH  031%=      5-min Rain = 0
KGGS 200010Z 16007KT 19/02 A2981 RMK A01 T01930020  RH  032%=      5-min Rain = 0
KGGS 200015Z 16007KT 19/02 A2981 RMK A01 T01940022  RH  032%=      5-min Rain = 0
KGGS 200020Z 16008KT 19/02 A2981 RMK A01 T01940022  RH  032%=      5-min Rain = 0
KGGS 200025Z 17008KT 19/02 A2981 RMK A01 T01940021  RH  032%=      5-min Rain = 0
KGGS 200030Z 16007KT 20/02 A2981 RMK A01 T01950020  RH  032%=      5-min Rain = 0
KGGS 200035Z 16007KT 20/02 A2981 RMK A01 T01950020  RH  032%=      5-min Rain = 0
KGGS 200040Z 16008KT 20/02 A2981 RMK A01 T01960020  RH  031%=      5-min Rain = 0
KGGS 200045Z 17009KT 20/02 A2981 RMK A01 T02010020  RH  030%=      5-min Rain = 0
KGGS 200050Z 17009KT 20/02 A2981 RMK A01 T02040020  RH  030%=      5-min Rain = 0
KGGS 200055Z 17010KT 21/02 A2981 RMK A01 T02050020  RH  030%=      5-min Rain = 0
KGGS 200100Z 17009KT 20/02 A2982 RMK A01 T02030020  RH  030%=      5-min Rain = 0
KGGS 200105Z 17008KT 20/02 A2982 RMK A01 T01980022  RH  031%=      5-min Rain = 0
KGGS 200110Z 17007KT 19/02 A2982 RMK A01 T01930023  RH  033%=      5-min Rain = 0
KGGS 200115Z 17007KT 19/02 A2982 RMK A01 T01890024  RH  034%=      5-min Rain = 0
KGGS 200120Z 17007KT 19/02 A2982 RMK A01 T01850024  RH  035%=      5-min Rain = 0
KGGS 200125Z 16007KT 18/03 A2982 RMK A01 T01830025  RH  035%=      5-min Rain = 0
KGGS 200130Z 16009KT 19/03 A2982 RMK A01 T01870026  RH  035%=      5-min Rain = 0
KGGS 200135Z 17009KT 19/03 A2982 RMK A01 T01880027  RH  035%=      5-min Rain = 0
KGGS 200140Z 17009KT 19/03 A2982 RMK A01 T01890028  RH  035%=      5-min Rain = 0
KGGS 200145Z 17008KT 19/03 A2983 RMK A01 T01890029  RH  035%=      5-min Rain = 0
KGGS 200150Z 17008KT 19/03 A2983 RMK A01 T01860030  RH  036%=      5-min Rain = 0
KGGS 200155Z 17008KT 18/03 A2983 RMK A01 T01840031  RH  037%=      5-min Rain = 0
KGGS 200200Z 17008KT 18/03 A2983 RMK A01 T01820032  RH  037%=      5-min Rain = 0
KGGS 200205Z 17008KT 18/03 A2983 RMK A01 T01820034  RH  038%=      5-min Rain = 0
KGGS 200210Z 17009KT 18/04 A2983 RMK A01 T01840036  RH  038%=      5-min Rain = 0
KGGS 200215Z 17009KT 19/04 A2983 RMK A01 T01860040  RH  039%=      5-min Rain = 0
KGGS 200220Z 17009KT 19/04 A2983 RMK A01 T01860042  RH  039%=      5-min Rain = 0
KGGS 200225Z 18009KT 19/04 A2984 RMK A01 T01850043  RH  040%=      5-min Rain = 0
KGGS 200230Z 18008KT 18/04 A2984 RMK A01 T01840044  RH  040%=      5-min Rain = 0
KGGS 200235Z 17008KT 18/05 A2984 RMK A01 T01820045  RH  041%=      5-min Rain = 0
KGGS 200240Z 17007KT 18/05 A2984 RMK A01 T01780045  RH  042%=      5-min Rain = 0
KGGS 200245Z 17007KT 17/05 A2984 RMK A01 T01740046  RH  044%=      5-min Rain = 0
KGGS 200250Z 17007KT 17/05 A2984 RMK A01 T01700047  RH  045%=      5-min Rain = 0
KGGS 200255Z 17007KT 17/05 A2984 RMK A01 T01670047  RH  046%=      5-min Rain = 0
KGGS 200300Z 17007KT 16/05 A2984 RMK A01 T01640047  RH  047%=      5-min Rain = 0
KGGS 200305Z 17007KT 16/05 A2984 RMK A01 T01630049  RH  048%=      5-min Rain = 0
KGGS 200310Z 17007KT 16/05 A2984 RMK A01 T01630050  RH  048%=      5-min Rain = 0
KGGS 200315Z 17007KT 17/05 A2984 RMK A01 T01650052  RH  048%=      5-min Rain = 0
KGGS 200320Z 17007KT 17/06 A2984 RMK A01 T01660055  RH  049%=      5-min Rain = 0
KGGS 200325Z 17007KT 17/06 A2984 RMK A01 T01670057  RH  049%=      5-min Rain = 0
KGGS 200330Z 17007KT 17/06 A2984 RMK A01 T01670058  RH  050%=      5-min Rain = 0
KGGS 200335Z 17007KT 17/06 A2984 RMK A01 T01670059  RH  050%=      5-min Rain = 0
KGGS 200340Z 17007KT 17/06 A2984 RMK A01 T01670061  RH  051%=      5-min Rain = 0
KGGS 200345Z 17007KT 17/06 A2985 RMK A01 T01650061  RH  051%=      5-min Rain = 0
KGGS 200350Z 17007KT 16/06 A2985 RMK A01 T01640062  RH  052%=      5-min Rain = 0
KGGS 200355Z 17007KT 16/06 A2985 RMK A01 T01610063  RH  054%=      5-min Rain = 0
KGGS 200400Z 17007KT 16/07 A2985 RMK A01 T01600065  RH  055%=      5-min Rain = 0
KGGS 200405Z 17007KT 16/07 A2985 RMK A01 T01640067  RH  054%=      5-min Rain = 0
KGGS 200410Z 17008KT 17/07 A2984 RMK A01 T01650070  RH  055%=      5-min Rain = 0
KGGS 200415Z 17009KT 17/07 A2984 RMK A01 T01690074  RH  055%=      5-min Rain = 0
KGGS 200420Z 18010KT 17/08 A2984 RMK A01 T01720077  RH  055%=      5-min Rain = 0
KGGS 200425Z 18010KT 17/08 A2984 RMK A01 T01730078  RH  055%=      5-min Rain = 0
KGGS 200430Z 18010KT 17/08 A2984 RMK A01 T01720079  RH  056%=      5-min Rain = 0
KGGS 200435Z 18009KT 17/08 A2984 RMK A01 T01710079  RH  056%=      5-min Rain = 0
KGGS 200440Z 18009KT 17/08 A2984 RMK A01 T01700080  RH  057%=      5-min Rain = 0
KGGS 200445Z 18007KT 17/08 A2984 RMK A01 T01680080  RH  058%=      5-min Rain = 0
KGGS 200450Z 18007KT 17/08 A2984 RMK A01 T01650080  RH  059%=      5-min Rain = 0
KGGS 200455Z 18008KT 16/08 A2984 RMK A01 T01640081  RH  060%=      5-min Rain = 0
KGGS 200500Z 18006KT 16/08 A2985 RMK A01 T01620082  RH  061%=      5-min Rain = 0
KGGS 200505Z 18007KT 16/08 A2985 RMK A01 T01620083  RH  061%=      5-min Rain = 0
KGGS 200510Z 19007KT 16/08 A2985 RMK A01 T01630084  RH  061%=      5-min Rain = 0
KGGS 200515Z 18008KT 16/09 A2985 RMK A01 T01640085  RH  061%=      5-min Rain = 0
KGGS 200520Z 18007KT 17/09 A2985 RMK A01 T01650086  RH  061%=      5-min Rain = 0
KGGS 200525Z 18008KT 17/09 A2985 RMK A01 T01660086  RH  061%=      5-min Rain = 0
KGGS 200530Z 18008KT 17/09 A2985 RMK A01 T01650087  RH  061%=      5-min Rain = 0
KGGS 200535Z 18008G13KT 17/09 A2985 RMK A01 T01650087  RH  062%=      5-min Rain = 0
KGGS 200540Z 18009KT 17/09 A2985 RMK A01 T01670088  RH  061%=      5-min Rain = 0
KGGS 200545Z 19008KT 17/09 A2985 RMK A01 T01660088  RH  062%=      5-min Rain = 0
KGGS 200550Z 19009KT 17/09 A2985 RMK A01 T01670089  RH  062%=      5-min Rain = 0
KGGS 200555Z 20008KT 17/09 A2985 RMK A01 T01660089  RH  062%=      5-min Rain = 0

Page generated in 0.0087 seconds.